sensor_id;sensor_type;location;lat;lon;timestamp;P1;durP1;ratioP1;P2;durP2;ratioP2
51838;SDS011;37886;53.174;6.368;2023-10-19T00:01:57;25.05;;;10.23;;
51838;SDS011;37886;53.174;6.368;2023-10-19T00:04:26;24.15;;;10.95;;
51838;SDS011;37886;53.174;6.368;2023-10-19T00:06:56;27.85;;;10.90;;
51838;SDS011;37886;53.174;6.368;2023-10-19T00:09:22;25.63;;;10.85;;
51838;SDS011;37886;53.174;6.368;2023-10-19T00:11:48;25.85;;;11.23;;
51838;SDS011;37886;53.174;6.368;2023-10-19T00:14:16;22.33;;;11.75;;
51838;SDS011;37886;53.174;6.368;2023-10-19T00:16:44;23.17;;;10.95;;
51838;SDS011;37886;53.174;6.368;2023-10-19T00:19:19;24.40;;;11.50;;
51838;SDS011;37886;53.174;6.368;2023-10-19T00:21:45;27.92;;;11.45;;
51838;SDS011;37886;53.174;6.368;2023-10-19T00:24:20;25.20;;;11.63;;
51838;SDS011;37886;53.174;6.368;2023-10-19T00:26:48;29.35;;;12.40;;
51838;SDS011;37886;53.174;6.368;2023-10-19T00:29:18;29.15;;;12.75;;
51838;SDS011;37886;53.174;6.368;2023-10-19T00:31:57;26.75;;;11.88;;
51838;SDS011;37886;53.174;6.368;2023-10-19T00:34:24;32.92;;;13.27;;
51838;SDS011;37886;53.174;6.368;2023-10-19T00:36:56;26.52;;;12.52;;
51838;SDS011;37886;53.174;6.368;2023-10-19T00:39:24;28.50;;;11.93;;
51838;SDS011;37886;53.174;6.368;2023-10-19T00:41:52;32.85;;;13.07;;
51838;SDS011;37886;53.174;6.368;2023-10-19T00:44:22;31.58;;;13.35;;
51838;SDS011;37886;53.174;6.368;2023-10-19T00:46:55;29.35;;;12.85;;
51838;SDS011;37886;53.174;6.368;2023-10-19T00:49:37;26.17;;;12.73;;
51838;SDS011;37886;53.174;6.368;2023-10-19T00:52:03;36.08;;;13.93;;
51838;SDS011;37886;53.174;6.368;2023-10-19T00:54:41;31.95;;;13.90;;
51838;SDS011;37886;53.174;6.368;2023-10-19T00:57:14;34.30;;;13.88;;
51838;SDS011;37886;53.174;6.368;2023-10-19T00:59:44;31.77;;;13.20;;
51838;SDS011;37886;53.174;6.368;2023-10-19T01:02:17;28.23;;;13.15;;
51838;SDS011;37886;53.174;6.368;2023-10-19T01:05:05;27.63;;;13.02;;
51838;SDS011;37886;53.174;6.368;2023-10-19T01:07:31;40.45;;;14.40;;
51838;SDS011;37886;53.174;6.368;2023-10-19T01:10:07;39.72;;;14.13;;
51838;SDS011;37886;53.174;6.368;2023-10-19T01:12:34;37.42;;;14.85;;
51838;SDS011;37886;53.174;6.368;2023-10-19T01:17:33;29.83;;;13.57;;
51838;SDS011;37886;53.174;6.368;2023-10-19T01:20:04;31.00;;;14.40;;
51838;SDS011;37886;53.174;6.368;2023-10-19T01:22:53;33.25;;;14.52;;
51838;SDS011;37886;53.174;6.368;2023-10-19T01:28:24;38.00;;;15.00;;
51838;SDS011;37886;53.174;6.368;2023-10-19T01:31:10;39.65;;;14.60;;
51838;SDS011;37886;53.174;6.368;2023-10-19T01:33:42;35.80;;;15.05;;
51838;SDS011;37886;53.174;6.368;2023-10-19T01:36:11;33.17;;;14.25;;
51838;SDS011;37886;53.174;6.368;2023-10-19T01:38:39;33.38;;;13.93;;
51838;SDS011;37886;53.174;6.368;2023-10-19T01:41:07;40.53;;;15.93;;
51838;SDS011;37886;53.174;6.368;2023-10-19T01:43:43;45.92;;;16.13;;
51838;SDS011;37886;53.174;6.368;2023-10-19T01:46:10;38.30;;;15.57;;
51838;SDS011;37886;53.174;6.368;2023-10-19T01:48:46;31.08;;;13.63;;
51838;SDS011;37886;53.174;6.368;2023-10-19T01:51:13;35.90;;;15.15;;
51838;SDS011;37886;53.174;6.368;2023-10-19T01:53:39;35.53;;;14.57;;
51838;SDS011;37886;53.174;6.368;2023-10-19T01:56:08;34.13;;;14.40;;
51838;SDS011;37886;53.174;6.368;2023-10-19T01:58:42;40.70;;;14.38;;
51838;SDS011;37886;53.174;6.368;2023-10-19T02:01:11;34.15;;;14.02;;
51838;SDS011;37886;53.174;6.368;2023-10-19T02:03:38;28.08;;;13.68;;
51838;SDS011;37886;53.174;6.368;2023-10-19T02:06:09;46.08;;;14.68;;
51838;SDS011;37886;53.174;6.368;2023-10-19T02:08:49;47.70;;;15.20;;
51838;SDS011;37886;53.174;6.368;2023-10-19T02:11:25;42.42;;;14.85;;
51838;SDS011;37886;53.174;6.368;2023-10-19T02:13:53;45.53;;;14.60;;
51838;SDS011;37886;53.174;6.368;2023-10-19T02:16:21;33.90;;;13.70;;
51838;SDS011;37886;53.174;6.368;2023-10-19T02:18:54;33.47;;;13.05;;
51838;SDS011;37886;53.174;6.368;2023-10-19T02:21:20;34.88;;;13.50;;
51838;SDS011;37886;53.174;6.368;2023-10-19T02:23:56;37.67;;;14.45;;
51838;SDS011;37886;53.174;6.368;2023-10-19T02:26:25;29.98;;;13.02;;
51838;SDS011;37886;53.174;6.368;2023-10-19T02:28:52;33.03;;;12.20;;
51838;SDS011;37886;53.174;6.368;2023-10-19T02:31:20;31.88;;;12.25;;
51838;SDS011;37886;53.174;6.368;2023-10-19T02:33:50;27.15;;;12.10;;
51838;SDS011;37886;53.174;6.368;2023-10-19T02:36:29;29.67;;;12.00;;
51838;SDS011;37886;53.174;6.368;2023-10-19T02:38:56;25.42;;;11.60;;
51838;SDS011;37886;53.174;6.368;2023-10-19T02:41:28;33.30;;;13.13;;
51838;SDS011;37886;53.174;6.368;2023-10-19T02:43:54;45.58;;;13.40;;
51838;SDS011;37886;53.174;6.368;2023-10-19T02:46:30;30.60;;;12.95;;
51838;SDS011;37886;53.174;6.368;2023-10-19T02:49:00;34.05;;;12.32;;
51838;SDS011;37886;53.174;6.368;2023-10-19T02:51:28;25.25;;;11.13;;
51838;SDS011;37886;53.174;6.368;2023-10-19T02:53:54;37.83;;;12.73;;
51838;SDS011;37886;53.174;6.368;2023-10-19T02:56:20;28.33;;;12.18;;
51838;SDS011;37886;53.174;6.368;2023-10-19T02:58:48;32.65;;;12.23;;
51838;SDS011;37886;53.174;6.368;2023-10-19T03:01:20;26.52;;;11.10;;
51838;SDS011;37886;53.174;6.368;2023-10-19T03:03:50;29.63;;;11.85;;
51838;SDS011;37886;53.174;6.368;2023-10-19T03:06:19;26.67;;;11.25;;
51838;SDS011;37886;53.174;6.368;2023-10-19T03:08:48;24.65;;;10.82;;
51838;SDS011;37886;53.174;6.368;2023-10-19T03:11:38;24.93;;;11.03;;
51838;SDS011;37886;53.174;6.368;2023-10-19T03:14:09;24.10;;;10.55;;
51838;SDS011;37886;53.174;6.368;2023-10-19T03:16:39;28.08;;;10.90;;
51838;SDS011;37886;53.174;6.368;2023-10-19T03:19:07;28.48;;;11.60;;
51838;SDS011;37886;53.174;6.368;2023-10-19T03:21:33;28.48;;;11.18;;
51838;SDS011;37886;53.174;6.368;2023-10-19T03:24:10;32.70;;;11.40;;
51838;SDS011;37886;53.174;6.368;2023-10-19T03:26:48;29.52;;;10.50;;
51838;SDS011;37886;53.174;6.368;2023-10-19T03:29:15;33.13;;;11.55;;
51838;SDS011;37886;53.174;6.368;2023-10-19T03:31:48;34.88;;;11.15;;
51838;SDS011;37886;53.174;6.368;2023-10-19T03:34:14;33.60;;;10.50;;
51838;SDS011;37886;53.174;6.368;2023-10-19T03:36:42;33.50;;;11.02;;
51838;SDS011;37886;53.174;6.368;2023-10-19T03:39:09;33.85;;;10.75;;
51838;SDS011;37886;53.174;6.368;2023-10-19T03:41:39;25.42;;;10.40;;
51838;SDS011;37886;53.174;6.368;2023-10-19T03:44:12;22.03;;;9.53;;
51838;SDS011;37886;53.174;6.368;2023-10-19T03:46:48;29.98;;;9.93;;
51838;SDS011;37886;53.174;6.368;2023-10-19T03:49:32;33.70;;;10.82;;
51838;SDS011;37886;53.174;6.368;2023-10-19T03:52:02;35.00;;;11.85;;
51838;SDS011;37886;53.174;6.368;2023-10-19T03:54:49;28.75;;;10.23;;
51838;SDS011;37886;53.174;6.368;2023-10-19T03:57:16;29.88;;;10.25;;
51838;SDS011;37886;53.174;6.368;2023-10-19T03:59:49;24.05;;;9.18;;
51838;SDS011;37886;53.174;6.368;2023-10-19T04:02:21;42.85;;;10.88;;
51838;SDS011;37886;53.174;6.368;2023-10-19T04:04:47;49.63;;;11.82;;
51838;SDS011;37886;53.174;6.368;2023-10-19T04:07:13;30.08;;;10.43;;
51838;SDS011;37886;53.174;6.368;2023-10-19T04:09:52;26.10;;;9.68;;
51838;SDS011;37886;53.174;6.368;2023-10-19T04:12:32;28.08;;;10.35;;
51838;SDS011;37886;53.174;6.368;2023-10-19T04:15:06;29.52;;;10.30;;
51838;SDS011;37886;53.174;6.368;2023-10-19T04:17:41;31.08;;;9.77;;
51838;SDS011;37886;53.174;6.368;2023-10-19T04:20:10;31.25;;;9.25;;
51838;SDS011;37886;53.174;6.368;2023-10-19T04:22:54;37.35;;;10.35;;
51838;SDS011;37886;53.174;6.368;2023-10-19T04:25:20;31.17;;;9.60;;
51838;SDS011;37886;53.174;6.368;2023-10-19T04:27:50;25.17;;;9.48;;
51838;SDS011;37886;53.174;6.368;2023-10-19T04:30:15;29.70;;;9.85;;
51838;SDS011;37886;53.174;6.368;2023-10-19T04:32:45;33.33;;;10.50;;
51838;SDS011;37886;53.174;6.368;2023-10-19T04:35:11;33.22;;;9.63;;
51838;SDS011;37886;53.174;6.368;2023-10-19T04:37:50;27.17;;;10.05;;
51838;SDS011;37886;53.174;6.368;2023-10-19T04:40:17;31.65;;;9.98;;
51838;SDS011;37886;53.174;6.368;2023-10-19T04:42:44;20.95;;;9.00;;
51838;SDS011;37886;53.174;6.368;2023-10-19T04:45:11;25.08;;;9.20;;
51838;SDS011;37886;53.174;6.368;2023-10-19T04:47:37;26.13;;;9.13;;
51838;SDS011;37886;53.174;6.368;2023-10-19T04:50:04;25.55;;;8.95;;
51838;SDS011;37886;53.174;6.368;2023-10-19T04:52:30;32.40;;;9.65;;
51838;SDS011;37886;53.174;6.368;2023-10-19T04:54:57;24.83;;;8.15;;
51838;SDS011;37886;53.174;6.368;2023-10-19T04:57:23;28.52;;;8.38;;
51838;SDS011;37886;53.174;6.368;2023-10-19T04:59:49;25.80;;;8.68;;
51838;SDS011;37886;53.174;6.368;2023-10-19T05:02:15;24.65;;;8.10;;
51838;SDS011;37886;53.174;6.368;2023-10-19T05:04:41;26.75;;;8.50;;
51838;SDS011;37886;53.174;6.368;2023-10-19T05:07:07;25.13;;;8.50;;
51838;SDS011;37886;53.174;6.368;2023-10-19T05:09:37;24.60;;;8.35;;
51838;SDS011;37886;53.174;6.368;2023-10-19T05:12:05;21.05;;;7.53;;
51838;SDS011;37886;53.174;6.368;2023-10-19T05:14:39;22.05;;;7.35;;
51838;SDS011;37886;53.174;6.368;2023-10-19T05:17:09;20.70;;;7.45;;
51838;SDS011;37886;53.174;6.368;2023-10-19T05:19:35;17.33;;;6.75;;
51838;SDS011;37886;53.174;6.368;2023-10-19T05:22:04;19.70;;;7.45;;
51838;SDS011;37886;53.174;6.368;2023-10-19T05:24:33;16.77;;;6.75;;
51838;SDS011;37886;53.174;6.368;2023-10-19T05:26:59;21.85;;;7.22;;
51838;SDS011;37886;53.174;6.368;2023-10-19T05:29:25;15.77;;;6.57;;
51838;SDS011;37886;53.174;6.368;2023-10-19T05:31:52;17.13;;;6.50;;
51838;SDS011;37886;53.174;6.368;2023-10-19T05:34:26;12.02;;;5.22;;
51838;SDS011;37886;53.174;6.368;2023-10-19T05:36:52;21.02;;;5.90;;
51838;SDS011;37886;53.174;6.368;2023-10-19T05:39:19;17.25;;;6.13;;
51838;SDS011;37886;53.174;6.368;2023-10-19T05:41:45;17.23;;;5.97;;
51838;SDS011;37886;53.174;6.368;2023-10-19T05:44:11;16.48;;;5.68;;
51838;SDS011;37886;53.174;6.368;2023-10-19T05:46:36;17.15;;;5.55;;
51838;SDS011;37886;53.174;6.368;2023-10-19T05:49:03;13.70;;;5.15;;
51838;SDS011;37886;53.174;6.368;2023-10-19T05:51:31;13.73;;;5.53;;
51838;SDS011;37886;53.174;6.368;2023-10-19T05:53:57;12.77;;;4.78;;
51838;SDS011;37886;53.174;6.368;2023-10-19T05:56:30;12.03;;;4.80;;
51838;SDS011;37886;53.174;6.368;2023-10-19T05:58:56;12.25;;;5.00;;
51838;SDS011;37886;53.174;6.368;2023-10-19T06:01:25;12.23;;;4.13;;
51838;SDS011;37886;53.174;6.368;2023-10-19T06:03:51;14.02;;;5.10;;
51838;SDS011;37886;53.174;6.368;2023-10-19T06:06:17;14.15;;;4.60;;
51838;SDS011;37886;53.174;6.368;2023-10-19T06:08:44;14.63;;;5.15;;
51838;SDS011;37886;53.174;6.368;2023-10-19T06:11:10;14.73;;;4.90;;
51838;SDS011;37886;53.174;6.368;2023-10-19T06:13:36;18.42;;;5.10;;
51838;SDS011;37886;53.174;6.368;2023-10-19T06:16:01;12.35;;;4.63;;
51838;SDS011;37886;53.174;6.368;2023-10-19T06:18:27;11.05;;;4.20;;
51838;SDS011;37886;53.174;6.368;2023-10-19T06:20:54;12.07;;;4.68;;
51838;SDS011;37886;53.174;6.368;2023-10-19T06:23:21;11.02;;;4.80;;
51838;SDS011;37886;53.174;6.368;2023-10-19T06:25:47;12.38;;;4.78;;
51838;SDS011;37886;53.174;6.368;2023-10-19T06:28:13;14.13;;;5.15;;
51838;SDS011;37886;53.174;6.368;2023-10-19T06:30:39;10.13;;;4.45;;
51838;SDS011;37886;53.174;6.368;2023-10-19T06:33:07;11.70;;;4.25;;
51838;SDS011;37886;53.174;6.368;2023-10-19T06:35:33;10.93;;;4.00;;
51838;SDS011;37886;53.174;6.368;2023-10-19T06:38:01;9.65;;;4.13;;
51838;SDS011;37886;53.174;6.368;2023-10-19T06:40:29;11.10;;;3.83;;
51838;SDS011;37886;53.174;6.368;2023-10-19T06:42:56;11.07;;;4.15;;
51838;SDS011;37886;53.174;6.368;2023-10-19T06:45:22;9.38;;;4.00;;
51838;SDS011;37886;53.174;6.368;2023-10-19T06:47:49;9.52;;;4.00;;
51838;SDS011;37886;53.174;6.368;2023-10-19T06:50:16;10.57;;;3.80;;
51838;SDS011;37886;53.174;6.368;2023-10-19T06:52:43;7.97;;;3.22;;
51838;SDS011;37886;53.174;6.368;2023-10-19T06:55:11;11.38;;;3.45;;
51838;SDS011;37886;53.174;6.368;2023-10-19T06:57:48;8.18;;;3.50;;
51838;SDS011;37886;53.174;6.368;2023-10-19T07:00:16;12.32;;;4.10;;
51838;SDS011;37886;53.174;6.368;2023-10-19T07:02:52;9.82;;;3.60;;
51838;SDS011;37886;53.174;6.368;2023-10-19T07:05:20;8.02;;;3.50;;
51838;SDS011;37886;53.174;6.368;2023-10-19T07:07:47;15.75;;;3.75;;
51838;SDS011;37886;53.174;6.368;2023-10-19T07:10:17;9.25;;;3.47;;
51838;SDS011;37886;53.174;6.368;2023-10-19T07:12:45;9.20;;;3.63;;
51838;SDS011;37886;53.174;6.368;2023-10-19T07:15:12;9.95;;;4.03;;
51838;SDS011;37886;53.174;6.368;2023-10-19T07:17:42;7.13;;;3.40;;
51838;SDS011;37886;53.174;6.368;2023-10-19T07:20:08;9.40;;;3.20;;
51838;SDS011;37886;53.174;6.368;2023-10-19T07:22:53;8.15;;;3.33;;
51838;SDS011;37886;53.174;6.368;2023-10-19T07:25:20;8.38;;;3.17;;
51838;SDS011;37886;53.174;6.368;2023-10-19T07:27:49;7.55;;;2.83;;
51838;SDS011;37886;53.174;6.368;2023-10-19T07:30:19;5.80;;;2.88;;
51838;SDS011;37886;53.174;6.368;2023-10-19T07:32:51;12.90;;;3.45;;
51838;SDS011;37886;53.174;6.368;2023-10-19T07:35:23;9.45;;;3.30;;
51838;SDS011;37886;53.174;6.368;2023-10-19T07:37:51;7.32;;;2.92;;
51838;SDS011;37886;53.174;6.368;2023-10-19T07:40:17;6.88;;;3.17;;
51838;SDS011;37886;53.174;6.368;2023-10-19T07:42:46;7.60;;;2.80;;
51838;SDS011;37886;53.174;6.368;2023-10-19T07:45:14;6.40;;;2.72;;
51838;SDS011;37886;53.174;6.368;2023-10-19T07:47:40;7.60;;;2.78;;
51838;SDS011;37886;53.174;6.368;2023-10-19T07:50:10;6.45;;;2.47;;
51838;SDS011;37886;53.174;6.368;2023-10-19T07:52:46;6.50;;;2.83;;
51838;SDS011;37886;53.174;6.368;2023-10-19T07:55:13;8.13;;;2.90;;
51838;SDS011;37886;53.174;6.368;2023-10-19T07:57:40;4.97;;;2.38;;
51838;SDS011;37886;53.174;6.368;2023-10-19T08:00:07;3.75;;;2.40;;
51838;SDS011;37886;53.174;6.368;2023-10-19T08:02:36;6.47;;;2.80;;
51838;SDS011;37886;53.174;6.368;2023-10-19T08:05:10;4.50;;;2.60;;
51838;SDS011;37886;53.174;6.368;2023-10-19T08:07:37;8.30;;;2.92;;
51838;SDS011;37886;53.174;6.368;2023-10-19T08:10:10;5.47;;;2.83;;
51838;SDS011;37886;53.174;6.368;2023-10-19T08:12:40;4.97;;;2.70;;
51838;SDS011;37886;53.174;6.368;2023-10-19T08:15:07;4.90;;;2.42;;
51838;SDS011;37886;53.174;6.368;2023-10-19T08:17:33;6.03;;;3.05;;
51838;SDS011;37886;53.174;6.368;2023-10-19T08:19:59;4.95;;;2.70;;
51838;SDS011;37886;53.174;6.368;2023-10-19T08:22:28;7.00;;;2.60;;
51838;SDS011;37886;53.174;6.368;2023-10-19T08:24:55;10.45;;;3.28;;
51838;SDS011;37886;53.174;6.368;2023-10-19T08:27:21;7.72;;;3.28;;
51838;SDS011;37886;53.174;6.368;2023-10-19T08:29:49;6.97;;;2.88;;
51838;SDS011;37886;53.174;6.368;2023-10-19T08:32:15;9.88;;;3.28;;
51838;SDS011;37886;53.174;6.368;2023-10-19T08:34:41;7.40;;;3.50;;
51838;SDS011;37886;53.174;6.368;2023-10-19T08:37:07;7.60;;;3.30;;
51838;SDS011;37886;53.174;6.368;2023-10-19T08:39:32;8.85;;;3.42;;
51838;SDS011;37886;53.174;6.368;2023-10-19T08:42:04;10.57;;;3.30;;
51838;SDS011;37886;53.174;6.368;2023-10-19T08:44:34;9.07;;;3.65;;
51838;SDS011;37886;53.174;6.368;2023-10-19T08:47:00;18.48;;;4.80;;
51838;SDS011;37886;53.174;6.368;2023-10-19T08:49:26;10.00;;;3.95;;
51838;SDS011;37886;53.174;6.368;2023-10-19T08:51:53;6.63;;;3.20;;
51838;SDS011;37886;53.174;6.368;2023-10-19T08:54:20;10.52;;;3.80;;
51838;SDS011;37886;53.174;6.368;2023-10-19T08:56:46;12.30;;;4.60;;
51838;SDS011;37886;53.174;6.368;2023-10-19T08:59:14;10.63;;;3.90;;
51838;SDS011;37886;53.174;6.368;2023-10-19T09:01:41;13.27;;;4.20;;
51838;SDS011;37886;53.174;6.368;2023-10-19T09:04:11;11.10;;;4.55;;
51838;SDS011;37886;53.174;6.368;2023-10-19T09:06:37;15.95;;;4.50;;
51838;SDS011;37886;53.174;6.368;2023-10-19T09:09:10;9.82;;;4.10;;
51838;SDS011;37886;53.174;6.368;2023-10-19T09:11:44;10.10;;;4.30;;
51838;SDS011;37886;53.174;6.368;2023-10-19T09:14:13;12.65;;;4.32;;
51838;SDS011;37886;53.174;6.368;2023-10-19T09:16:55;11.35;;;4.22;;
51838;SDS011;37886;53.174;6.368;2023-10-19T09:22:22;14.63;;;4.78;;
51838;SDS011;37886;53.174;6.368;2023-10-19T09:24:49;13.98;;;4.78;;
51838;SDS011;37886;53.174;6.368;2023-10-19T09:27:18;14.77;;;4.75;;
51838;SDS011;37886;53.174;6.368;2023-10-19T09:29:48;18.48;;;5.68;;
51838;SDS011;37886;53.174;6.368;2023-10-19T09:32:16;15.52;;;5.00;;
51838;SDS011;37886;53.174;6.368;2023-10-19T09:34:42;14.00;;;5.10;;
51838;SDS011;37886;53.174;6.368;2023-10-19T09:37:14;11.15;;;4.70;;
51838;SDS011;37886;53.174;6.368;2023-10-19T09:39:42;14.77;;;5.10;;
51838;SDS011;37886;53.174;6.368;2023-10-19T09:42:08;25.92;;;5.47;;
51838;SDS011;37886;53.174;6.368;2023-10-19T09:44:42;17.60;;;5.32;;
51838;SDS011;37886;53.174;6.368;2023-10-19T09:47:15;19.85;;;5.78;;
51838;SDS011;37886;53.174;6.368;2023-10-19T09:49:49;20.27;;;5.25;;
51838;SDS011;37886;53.174;6.368;2023-10-19T09:52:15;17.73;;;5.28;;
51838;SDS011;37886;53.174;6.368;2023-10-19T09:57:50;21.05;;;5.20;;
51838;SDS011;37886;53.174;6.368;2023-10-19T10:00:20;20.55;;;5.57;;
51838;SDS011;37886;53.174;6.368;2023-10-19T10:02:49;23.33;;;6.03;;
51838;SDS011;37886;53.174;6.368;2023-10-19T10:10:45;23.58;;;5.43;;
51838;SDS011;37886;53.174;6.368;2023-10-19T10:13:54;19.80;;;4.93;;
51838;SDS011;37886;53.174;6.368;2023-10-19T10:16:01;19.55;;;5.55;;
51838;SDS011;37886;53.174;6.368;2023-10-19T10:18:32;26.60;;;6.32;;
51838;SDS011;37886;53.174;6.368;2023-10-19T10:21:12;19.30;;;5.32;;
51838;SDS011;37886;53.174;6.368;2023-10-19T10:23:56;19.20;;;5.43;;
51838;SDS011;37886;53.174;6.368;2023-10-19T10:26:29;19.73;;;5.22;;
51838;SDS011;37886;53.174;6.368;2023-10-19T10:29:08;31.25;;;6.57;;
51838;SDS011;37886;53.174;6.368;2023-10-19T10:31:46;17.02;;;5.43;;
51838;SDS011;37886;53.174;6.368;2023-10-19T10:37:06;28.10;;;5.65;;
51838;SDS011;37886;53.174;6.368;2023-10-19T10:39:36;20.65;;;5.95;;
51838;SDS011;37886;53.174;6.368;2023-10-19T10:42:07;27.10;;;6.25;;
51838;SDS011;37886;53.174;6.368;2023-10-19T10:44:41;24.67;;;5.88;;
51838;SDS011;37886;53.174;6.368;2023-10-19T10:47:11;21.00;;;5.32;;
51838;SDS011;37886;53.174;6.368;2023-10-19T10:52:26;19.33;;;5.10;;
51838;SDS011;37886;53.174;6.368;2023-10-19T10:54:54;13.90;;;4.57;;
51838;SDS011;37886;53.174;6.368;2023-10-19T10:57:21;26.30;;;5.43;;
51838;SDS011;37886;53.174;6.368;2023-10-19T11:00:00;20.58;;;4.97;;
51838;SDS011;37886;53.174;6.368;2023-10-19T11:02:26;16.05;;;4.47;;
51838;SDS011;37886;53.174;6.368;2023-10-19T11:04:52;15.80;;;5.30;;
51838;SDS011;37886;53.174;6.368;2023-10-19T11:07:18;20.40;;;5.10;;
51838;SDS011;37886;53.174;6.368;2023-10-19T11:09:45;16.25;;;5.60;;
51838;SDS011;37886;53.174;6.368;2023-10-19T11:12:11;21.63;;;5.28;;
51838;SDS011;37886;53.174;6.368;2023-10-19T11:14:51;17.17;;;5.03;;
51838;SDS011;37886;53.174;6.368;2023-10-19T11:17:20;16.48;;;5.18;;
51838;SDS011;37886;53.174;6.368;2023-10-19T11:19:53;16.27;;;5.07;;
51838;SDS011;37886;53.174;6.368;2023-10-19T11:22:21;15.88;;;5.05;;
51838;SDS011;37886;53.174;6.368;2023-10-19T11:24:50;31.25;;;5.93;;
51838;SDS011;37886;53.174;6.368;2023-10-19T11:27:26;20.42;;;5.22;;
51838;SDS011;37886;53.174;6.368;2023-10-19T11:30:02;27.63;;;5.95;;
51838;SDS011;37886;53.174;6.368;2023-10-19T11:32:38;25.98;;;5.82;;
51838;SDS011;37886;53.174;6.368;2023-10-19T11:35:04;20.15;;;5.70;;
51838;SDS011;37886;53.174;6.368;2023-10-19T11:37:51;36.25;;;7.20;;
51838;SDS011;37886;53.174;6.368;2023-10-19T11:40:21;15.80;;;5.22;;
51838;SDS011;37886;53.174;6.368;2023-10-19T11:42:51;19.08;;;5.45;;
51838;SDS011;37886;53.174;6.368;2023-10-19T11:45:21;17.67;;;5.30;;
51838;SDS011;37886;53.174;6.368;2023-10-19T11:47:48;15.93;;;5.00;;
51838;SDS011;37886;53.174;6.368;2023-10-19T11:50:15;16.20;;;4.85;;
51838;SDS011;37886;53.174;6.368;2023-10-19T11:52:43;22.08;;;5.43;;
51838;SDS011;37886;53.174;6.368;2023-10-19T11:55:11;20.02;;;5.72;;
51838;SDS011;37886;53.174;6.368;2023-10-19T11:57:39;15.10;;;4.88;;
51838;SDS011;37886;53.174;6.368;2023-10-19T12:00:05;23.95;;;5.53;;
51838;SDS011;37886;53.174;6.368;2023-10-19T12:02:38;19.33;;;5.55;;
51838;SDS011;37886;53.174;6.368;2023-10-19T12:05:07;24.73;;;5.95;;
51838;SDS011;37886;53.174;6.368;2023-10-19T12:10:04;13.57;;;4.70;;
51838;SDS011;37886;53.174;6.368;2023-10-19T12:12:32;16.90;;;4.57;;
51838;SDS011;37886;53.174;6.368;2023-10-19T12:14:59;24.13;;;5.43;;
51838;SDS011;37886;53.174;6.368;2023-10-19T12:17:24;21.85;;;5.07;;
51838;SDS011;37886;53.174;6.368;2023-10-19T12:19:52;29.00;;;5.65;;
51838;SDS011;37886;53.174;6.368;2023-10-19T12:22:19;20.42;;;5.82;;
51838;SDS011;37886;53.174;6.368;2023-10-19T12:24:46;24.65;;;5.90;;
51838;SDS011;37886;53.174;6.368;2023-10-19T12:27:13;23.67;;;6.05;;
51838;SDS011;37886;53.174;6.368;2023-10-19T12:29:39;25.30;;;5.68;;
51838;SDS011;37886;53.174;6.368;2023-10-19T12:32:05;16.88;;;6.30;;
51838;SDS011;37886;53.174;6.368;2023-10-19T12:34:31;15.63;;;6.63;;
51838;SDS011;37886;53.174;6.368;2023-10-19T12:36:58;21.13;;;6.50;;
51838;SDS011;37886;53.174;6.368;2023-10-19T12:39:24;18.92;;;7.28;;
51838;SDS011;37886;53.174;6.368;2023-10-19T12:42:09;21.15;;;7.07;;
51838;SDS011;37886;53.174;6.368;2023-10-19T12:44:35;23.13;;;7.63;;
51838;SDS011;37886;53.174;6.368;2023-10-19T12:47:07;23.95;;;7.32;;
51838;SDS011;37886;53.174;6.368;2023-10-19T12:49:36;30.52;;;6.90;;
51838;SDS011;37886;53.174;6.368;2023-10-19T12:52:02;16.02;;;6.22;;
51838;SDS011;37886;53.174;6.368;2023-10-19T12:54:29;29.45;;;6.93;;
51838;SDS011;37886;53.174;6.368;2023-10-19T12:56:55;23.00;;;6.60;;
51838;SDS011;37886;53.174;6.368;2023-10-19T12:59:21;28.42;;;6.43;;
51838;SDS011;37886;53.174;6.368;2023-10-19T13:01:47;25.55;;;6.75;;
51838;SDS011;37886;53.174;6.368;2023-10-19T13:04:14;20.95;;;6.68;;
51838;SDS011;37886;53.174;6.368;2023-10-19T13:06:44;24.92;;;6.85;;
51838;SDS011;37886;53.174;6.368;2023-10-19T13:09:12;19.10;;;6.40;;
51838;SDS011;37886;53.174;6.368;2023-10-19T13:11:40;19.45;;;6.40;;
51838;SDS011;37886;53.174;6.368;2023-10-19T13:14:09;22.85;;;6.15;;
51838;SDS011;37886;53.174;6.368;2023-10-19T13:16:35;26.42;;;7.03;;
51838;SDS011;37886;53.174;6.368;2023-10-19T13:19:00;30.63;;;7.55;;
51838;SDS011;37886;53.174;6.368;2023-10-19T13:21:34;22.95;;;7.28;;
51838;SDS011;37886;53.174;6.368;2023-10-19T13:24:03;28.55;;;8.18;;
51838;SDS011;37886;53.174;6.368;2023-10-19T13:26:28;23.42;;;8.32;;
51838;SDS011;37886;53.174;6.368;2023-10-19T13:28:54;17.70;;;8.38;;
51838;SDS011;37886;53.174;6.368;2023-10-19T13:31:21;26.10;;;8.48;;
51838;SDS011;37886;53.174;6.368;2023-10-19T13:33:47;30.70;;;9.13;;
51838;SDS011;37886;53.174;6.368;2023-10-19T13:36:13;28.95;;;9.57;;
51838;SDS011;37886;53.174;6.368;2023-10-19T13:38:39;26.50;;;9.32;;
51838;SDS011;37886;53.174;6.368;2023-10-19T13:41:06;24.08;;;8.43;;
51838;SDS011;37886;53.174;6.368;2023-10-19T13:43:35;25.30;;;8.85;;
51838;SDS011;37886;53.174;6.368;2023-10-19T13:46:01;22.85;;;8.15;;
51838;SDS011;37886;53.174;6.368;2023-10-19T13:48:27;24.10;;;8.25;;
51838;SDS011;37886;53.174;6.368;2023-10-19T13:50:53;23.17;;;8.32;;
51838;SDS011;37886;53.174;6.368;2023-10-19T13:53:25;26.98;;;8.43;;
51838;SDS011;37886;53.174;6.368;2023-10-19T13:55:51;28.38;;;8.68;;
51838;SDS011;37886;53.174;6.368;2023-10-19T13:58:17;30.30;;;8.95;;
51838;SDS011;37886;53.174;6.368;2023-10-19T14:00:43;23.92;;;8.25;;
51838;SDS011;37886;53.174;6.368;2023-10-19T14:03:10;29.73;;;8.65;;
51838;SDS011;37886;53.174;6.368;2023-10-19T14:05:39;26.33;;;8.77;;
51838;SDS011;37886;53.174;6.368;2023-10-19T14:08:08;32.38;;;8.30;;
51838;SDS011;37886;53.174;6.368;2023-10-19T14:10:35;40.47;;;9.13;;
51838;SDS011;37886;53.174;6.368;2023-10-19T14:13:01;23.48;;;7.90;;
51838;SDS011;37886;53.174;6.368;2023-10-19T14:15:27;25.90;;;8.27;;
51838;SDS011;37886;53.174;6.368;2023-10-19T14:17:55;34.78;;;8.57;;
51838;SDS011;37886;53.174;6.368;2023-10-19T14:20:23;24.17;;;7.83;;
51838;SDS011;37886;53.174;6.368;2023-10-19T14:22:49;29.42;;;7.78;;
51838;SDS011;37886;53.174;6.368;2023-10-19T14:25:18;25.17;;;7.85;;
51838;SDS011;37886;53.174;6.368;2023-10-19T14:27:46;30.52;;;7.97;;
51838;SDS011;37886;53.174;6.368;2023-10-19T14:30:14;35.17;;;8.27;;
51838;SDS011;37886;53.174;6.368;2023-10-19T14:32:41;25.77;;;7.13;;
51838;SDS011;37886;53.174;6.368;2023-10-19T14:35:08;25.92;;;7.90;;
51838;SDS011;37886;53.174;6.368;2023-10-19T14:37:39;27.45;;;7.68;;
51838;SDS011;37886;53.174;6.368;2023-10-19T14:40:14;22.73;;;7.38;;
51838;SDS011;37886;53.174;6.368;2023-10-19T14:42:48;29.05;;;6.97;;
51838;SDS011;37886;53.174;6.368;2023-10-19T14:45:18;28.10;;;7.03;;
51838;SDS011;37886;53.174;6.368;2023-10-19T14:47:48;19.88;;;7.03;;
51838;SDS011;37886;53.174;6.368;2023-10-19T14:50:16;20.58;;;6.55;;
51838;SDS011;37886;53.174;6.368;2023-10-19T14:52:46;21.98;;;6.70;;
51838;SDS011;37886;53.174;6.368;2023-10-19T14:55:14;24.10;;;7.75;;
51838;SDS011;37886;53.174;6.368;2023-10-19T14:57:41;15.73;;;5.68;;
51838;SDS011;37886;53.174;6.368;2023-10-19T15:00:09;32.20;;;7.28;;
51838;SDS011;37886;53.174;6.368;2023-10-19T15:02:51;22.83;;;6.50;;
51838;SDS011;37886;53.174;6.368;2023-10-19T15:05:20;21.90;;;6.28;;
51838;SDS011;37886;53.174;6.368;2023-10-19T15:07:48;21.25;;;6.00;;
51838;SDS011;37886;53.174;6.368;2023-10-19T15:10:22;29.65;;;6.55;;
51838;SDS011;37886;53.174;6.368;2023-10-19T15:12:52;26.33;;;6.43;;